sensor_id;sensor_type;location;lat;lon;timestamp;temperature;humidity
10911;DHT22;5508;49.150;11.030;2022-10-04T00:03:29;3.90;99.90
10911;DHT22;5508;49.150;11.030;2022-10-04T00:06:32;3.90;99.90
10911;DHT22;5508;49.150;11.030;2022-10-04T00:09:47;3.80;99.90
10911;DHT22;5508;49.150;11.030;2022-10-04T00:13:00;3.80;99.90
10911;DHT22;5508;49.150;11.030;2022-10-04T00:16:01;3.80;99.90
10911;DHT22;5508;49.150;11.030;2022-10-04T00:22:26;3.80;99.90
10911;DHT22;5508;49.150;11.030;2022-10-04T00:25:34;3.70;99.90
10911;DHT22;5508;49.150;11.030;2022-10-04T00:38:25;3.60;99.90
10911;DHT22;5508;49.150;11.030;2022-10-04T00:41:28;3.50;99.90
10911;DHT22;5508;49.150;11.030;2022-10-04T00:51:30;3.60;99.90
10911;DHT22;5508;49.150;11.030;2022-10-04T00:54:40;3.60;99.90
10911;DHT22;5508;49.150;11.030;2022-10-04T00:57:44;3.60;99.90
10911;DHT22;5508;49.150;11.030;2022-10-04T01:00:47;3.70;99.90
10911;DHT22;5508;49.150;11.030;2022-10-04T01:03:48;3.60;99.90
10911;DHT22;5508;49.150;11.030;2022-10-04T01:06:51;3.50;99.90
10911;DHT22;5508;49.150;11.030;2022-10-04T01:09:55;3.50;99.90
10911;DHT22;5508;49.150;11.030;2022-10-04T01:13:09;3.40;99.90
10911;DHT22;5508;49.150;11.030;2022-10-04T01:16:23;3.50;99.90
10911;DHT22;5508;49.150;11.030;2022-10-04T01:19:27;3.40;99.90
10911;DHT22;5508;49.150;11.030;2022-10-04T01:22:32;3.50;99.90
10911;DHT22;5508;49.150;11.030;2022-10-04T01:25:50;3.40;99.90
10911;DHT22;5508;49.150;11.030;2022-10-04T01:28:55;3.30;99.90
10911;DHT22;5508;49.150;11.030;2022-10-04T01:31:59;3.30;99.90
10911;DHT22;5508;49.150;11.030;2022-10-04T01:35:00;3.40;99.90
10911;DHT22;5508;49.150;11.030;2022-10-04T01:38:03;3.30;99.90
10911;DHT22;5508;49.150;11.030;2022-10-04T01:41:07;3.40;99.90
10911;DHT22;5508;49.150;11.030;2022-10-04T01:44:15;3.30;99.90
10911;DHT22;5508;49.150;11.030;2022-10-04T01:48:04;3.30;99.90
10911;DHT22;5508;49.150;11.030;2022-10-04T01:50:55;3.30;99.90
10911;DHT22;5508;49.150;11.030;2022-10-04T01:54:18;3.30;99.90
10911;DHT22;5508;49.150;11.030;2022-10-04T01:57:27;3.20;99.90
10911;DHT22;5508;49.150;11.030;2022-10-04T02:00:31;3.20;99.90
10911;DHT22;5508;49.150;11.030;2022-10-04T02:03:34;3.20;99.90
10911;DHT22;5508;49.150;11.030;2022-10-04T02:06:39;3.20;99.90
10911;DHT22;5508;49.150;11.030;2022-10-04T02:09:45;3.30;99.90
10911;DHT22;5508;49.150;11.030;2022-10-04T02:12:48;3.10;99.90
10911;DHT22;5508;49.150;11.030;2022-10-04T02:15:50;3.10;99.90
10911;DHT22;5508;49.150;11.030;2022-10-04T02:18:51;3.10;99.90
10911;DHT22;5508;49.150;11.030;2022-10-04T02:21:54;3.10;99.90
10911;DHT22;5508;49.150;11.030;2022-10-04T02:24:55;3.00;99.90
10911;DHT22;5508;49.150;11.030;2022-10-04T02:27:57;3.00;99.90
10911;DHT22;5508;49.150;11.030;2022-10-04T02:30:58;2.90;99.90
10911;DHT22;5508;49.150;11.030;2022-10-04T02:34:18;2.90;99.90
10911;DHT22;5508;49.150;11.030;2022-10-04T02:37:24;2.80;99.90
10911;DHT22;5508;49.150;11.030;2022-10-04T02:43:55;2.80;99.90
10911;DHT22;5508;49.150;11.030;2022-10-04T02:47:19;2.70;99.90
10911;DHT22;5508;49.150;11.030;2022-10-04T02:50:34;2.70;99.90
10911;DHT22;5508;49.150;11.030;2022-10-04T02:56:52;2.70;99.90
10911;DHT22;5508;49.150;11.030;2022-10-04T03:00:08;2.80;99.90
10911;DHT22;5508;49.150;11.030;2022-10-04T03:03:28;2.80;99.90
10911;DHT22;5508;49.150;11.030;2022-10-04T03:06:30;2.80;99.90
10911;DHT22;5508;49.150;11.030;2022-10-04T03:09:33;2.80;99.90
10911;DHT22;5508;49.150;11.030;2022-10-04T03:12:36;2.80;99.90
10911;DHT22;5508;49.150;11.030;2022-10-04T03:15:38;2.90;99.90
10911;DHT22;5508;49.150;11.030;2022-10-04T03:18:40;2.80;99.90
10911;DHT22;5508;49.150;11.030;2022-10-04T03:21:43;2.80;99.90
10911;DHT22;5508;49.150;11.030;2022-10-04T03:24:48;2.80;99.90
10911;DHT22;5508;49.150;11.030;2022-10-04T03:27:50;2.80;99.90
10911;DHT22;5508;49.150;11.030;2022-10-04T03:30:51;2.80;99.90
10911;DHT22;5508;49.150;11.030;2022-10-04T03:33:53;2.70;99.90
10911;DHT22;5508;49.150;11.030;2022-10-04T03:36:55;2.80;99.90
10911;DHT22;5508;49.150;11.030;2022-10-04T03:39:58;2.80;99.90
10911;DHT22;5508;49.150;11.030;2022-10-04T03:43:01;2.80;99.90
10911;DHT22;5508;49.150;11.030;2022-10-04T03:46:03;2.70;99.90
10911;DHT22;5508;49.150;11.030;2022-10-04T03:49:07;2.60;99.90
10911;DHT22;5508;49.150;11.030;2022-10-04T03:52:21;2.60;99.90
10911;DHT22;5508;49.150;11.030;2022-10-04T03:55:29;2.60;99.90
10911;DHT22;5508;49.150;11.030;2022-10-04T03:58:31;2.50;99.90
10911;DHT22;5508;49.150;11.030;2022-10-04T04:05:11;2.30;99.90
10911;DHT22;5508;49.150;11.030;2022-10-04T04:08:32;2.40;99.90
10911;DHT22;5508;49.150;11.030;2022-10-04T04:11:34;2.40;99.90
10911;DHT22;5508;49.150;11.030;2022-10-04T04:14:36;2.40;99.90
10911;DHT22;5508;49.150;11.030;2022-10-04T04:17:43;2.50;99.90
10911;DHT22;5508;49.150;11.030;2022-10-04T04:20:45;2.50;99.90
10911;DHT22;5508;49.150;11.030;2022-10-04T04:23:54;2.60;99.90
10911;DHT22;5508;49.150;11.030;2022-10-04T04:26:57;2.70;99.90
10911;DHT22;5508;49.150;11.030;2022-10-04T04:29:59;2.80;99.90
10911;DHT22;5508;49.150;11.030;2022-10-04T04:33:08;2.90;99.90
10911;DHT22;5508;49.150;11.030;2022-10-04T04:36:13;2.90;99.90
10911;DHT22;5508;49.150;11.030;2022-10-04T04:39:19;2.90;99.90
10911;DHT22;5508;49.150;11.030;2022-10-04T04:42:40;2.90;99.90
10911;DHT22;5508;49.150;11.030;2022-10-04T04:45:41;3.00;99.90
10911;DHT22;5508;49.150;11.030;2022-10-04T04:48:47;3.00;99.90
10911;DHT22;5508;49.150;11.030;2022-10-04T04:51:49;3.00;99.90
10911;DHT22;5508;49.150;11.030;2022-10-04T04:54:51;3.00;99.90
10911;DHT22;5508;49.150;11.030;2022-10-04T04:57:55;3.10;99.90
10911;DHT22;5508;49.150;11.030;2022-10-04T05:01:26;3.20;99.90
10911;DHT22;5508;49.150;11.030;2022-10-04T05:04:27;3.30;99.90
10911;DHT22;5508;49.150;11.030;2022-10-04T05:07:28;3.40;99.90
10911;DHT22;5508;49.150;11.030;2022-10-04T05:10:31;3.40;99.90
10911;DHT22;5508;49.150;11.030;2022-10-04T05:16:42;3.40;99.90
10911;DHT22;5508;49.150;11.030;2022-10-04T05:19:44;3.60;99.90
10911;DHT22;5508;49.150;11.030;2022-10-04T05:22:47;3.50;99.90
10911;DHT22;5508;49.150;11.030;2022-10-04T05:25:49;3.50;99.90
10911;DHT22;5508;49.150;11.030;2022-10-04T05:28:50;3.50;99.90
10911;DHT22;5508;49.150;11.030;2022-10-04T05:32:20;3.50;99.90
10911;DHT22;5508;49.150;11.030;2022-10-04T05:35:25;3.60;99.90
10911;DHT22;5508;49.150;11.030;2022-10-04T05:44:54;3.70;99.90
10911;DHT22;5508;49.150;11.030;2022-10-04T05:47:58;3.80;99.90
10911;DHT22;5508;49.150;11.030;2022-10-04T05:50:59;3.90;99.90
10911;DHT22;5508;49.150;11.030;2022-10-04T05:54:00;3.90;99.90
10911;DHT22;5508;49.150;11.030;2022-10-04T05:57:14;4.00;99.90
10911;DHT22;5508;49.150;11.030;2022-10-04T06:00:20;4.00;99.90
10911;DHT22;5508;49.150;11.030;2022-10-04T06:07:03;4.20;99.90
10911;DHT22;5508;49.150;11.030;2022-10-04T06:14:23;4.40;99.90
10911;DHT22;5508;49.150;11.030;2022-10-04T06:17:17;4.40;99.90
10911;DHT22;5508;49.150;11.030;2022-10-04T06:23:32;4.70;99.90
10911;DHT22;5508;49.150;11.030;2022-10-04T06:26:49;4.80;99.90
10911;DHT22;5508;49.150;11.030;2022-10-04T06:30:03;4.90;99.90
10911;DHT22;5508;49.150;11.030;2022-10-04T06:46:33;5.40;99.90
10911;DHT22;5508;49.150;11.030;2022-10-04T06:49:53;5.50;99.90
10911;DHT22;5508;49.150;11.030;2022-10-04T07:00:28;5.80;99.90
10911;DHT22;5508;49.150;11.030;2022-10-04T07:03:19;6.00;99.90
10911;DHT22;5508;49.150;11.030;2022-10-04T07:06:26;6.20;99.90
10911;DHT22;5508;49.150;11.030;2022-10-04T07:09:28;6.40;99.90
10911;DHT22;5508;49.150;11.030;2022-10-04T07:12:31;6.50;99.90
10911;DHT22;5508;49.150;11.030;2022-10-04T07:25:18;6.90;99.90
10911;DHT22;5508;49.150;11.030;2022-10-04T07:28:24;7.00;99.90
10911;DHT22;5508;49.150;11.030;2022-10-04T07:31:51;7.10;99.90
10911;DHT22;5508;49.150;11.030;2022-10-04T07:35:01;7.30;99.90
10911;DHT22;5508;49.150;11.030;2022-10-04T07:41:33;7.60;99.90
10911;DHT22;5508;49.150;11.030;2022-10-04T07:44:36;7.70;99.90
10911;DHT22;5508;49.150;11.030;2022-10-04T07:47:39;7.90;99.90
10911;DHT22;5508;49.150;11.030;2022-10-04T07:54:46;8.10;99.90
10911;DHT22;5508;49.150;11.030;2022-10-04T08:01:18;8.30;99.90
10911;DHT22;5508;49.150;11.030;2022-10-04T08:10:54;8.60;99.90
10911;DHT22;5508;49.150;11.030;2022-10-04T08:20:48;9.30;99.90
10911;DHT22;5508;49.150;11.030;2022-10-04T08:30:22;9.40;99.90
10911;DHT22;5508;49.150;11.030;2022-10-04T08:33:41;9.60;99.90
10911;DHT22;5508;49.150;11.030;2022-10-04T09:06:36;11.20;99.90
10911;DHT22;5508;49.150;11.030;2022-10-04T09:13:52;11.50;99.90
10911;DHT22;5508;49.150;11.030;2022-10-04T09:17:05;11.80;99.30
10911;DHT22;5508;49.150;11.030;2022-10-04T09:21:21;12.00;95.10
10911;DHT22;5508;49.150;11.030;2022-10-04T09:34:28;12.60;94.10
10911;DHT22;5508;49.150;11.030;2022-10-04T09:48:14;13.00;92.40
10911;DHT22;5508;49.150;11.030;2022-10-04T09:51:49;13.20;89.10
10911;DHT22;5508;49.150;11.030;2022-10-04T09:58:46;13.30;85.30
10911;DHT22;5508;49.150;11.030;2022-10-04T10:12:12;13.50;86.40
10911;DHT22;5508;49.150;11.030;2022-10-04T10:49:28;14.20;77.60
10911;DHT22;5508;49.150;11.030;2022-10-04T10:56:08;14.00;73.50
10911;DHT22;5508;49.150;11.030;2022-10-04T11:19:54;15.10;70.10
10911;DHT22;5508;49.150;11.030;2022-10-04T11:30:24;14.90;69.40
10911;DHT22;5508;49.150;11.030;2022-10-04T11:40:57;15.00;67.70
10911;DHT22;5508;49.150;11.030;2022-10-04T11:47:34;15.00;70.10
10911;DHT22;5508;49.150;11.030;2022-10-04T11:50:57;15.10;69.60
10911;DHT22;5508;49.150;11.030;2022-10-04T11:58:04;15.60;64.20
10911;DHT22;5508;49.150;11.030;2022-10-04T12:31:59;15.60;64.10
10911;DHT22;5508;49.150;11.030;2022-10-04T12:35:26;15.40;62.70
10911;DHT22;5508;49.150;11.030;2022-10-04T12:39:24;15.30;70.50
10911;DHT22;5508;49.150;11.030;2022-10-04T13:25:10;15.80;68.70
10911;DHT22;5508;49.150;11.030;2022-10-04T13:28:17;15.90;64.20
10911;DHT22;5508;49.150;11.030;2022-10-04T13:31:47;15.90;66.60
10911;DHT22;5508;49.150;11.030;2022-10-04T13:34:58;16.00;65.60
10911;DHT22;5508;49.150;11.030;2022-10-04T13:41:34;16.10;64.10
10911;DHT22;5508;49.150;11.030;2022-10-04T13:45:21;15.80;67.20
10911;DHT22;5508;49.150;11.030;2022-10-04T13:48:24;15.80;64.50
10911;DHT22;5508;49.150;11.030;2022-10-04T13:51:45;15.80;66.10
10911;DHT22;5508;49.150;11.030;2022-10-04T14:23:21;15.50;67.60
10911;DHT22;5508;49.150;11.030;2022-10-04T14:40:20;15.50;67.10
10911;DHT22;5508;49.150;11.030;2022-10-04T14:56:44;15.30;67.00
10911;DHT22;5508;49.150;11.030;2022-10-04T15:00:10;15.40;67.20
10911;DHT22;5508;49.150;11.030;2022-10-04T15:06:45;15.20;65.30
10911;DHT22;5508;49.150;11.030;2022-10-04T15:10:04;15.10;69.20
10911;DHT22;5508;49.150;11.030;2022-10-04T15:13:34;15.10;70.40
10911;DHT22;5508;49.150;11.030;2022-10-04T15:36:33;14.50;71.10
10911;DHT22;5508;49.150;11.030;2022-10-04T15:43:19;14.40;72.30
10911;DHT22;5508;49.150;11.030;2022-10-04T15:46:50;14.30;70.70
10911;DHT22;5508;49.150;11.030;2022-10-04T15:53:39;14.10;72.30
10911;DHT22;5508;49.150;11.030;2022-10-04T15:56:51;14.10;72.50
10911;DHT22;5508;49.150;11.030;2022-10-04T16:06:55;13.80;72.70
10911;DHT22;5508;49.150;11.030;2022-10-04T16:10:07;13.70;73.30
10911;DHT22;5508;49.150;11.030;2022-10-04T16:23:34;13.30;77.40
10911;DHT22;5508;49.150;11.030;2022-10-04T16:29:59;13.00;81.10
10911;DHT22;5508;49.150;11.030;2022-10-04T16:33:21;12.80;82.10
10911;DHT22;5508;49.150;11.030;2022-10-04T16:36:48;12.70;85.00
10911;DHT22;5508;49.150;11.030;2022-10-04T16:43:30;12.10;89.60
10911;DHT22;5508;49.150;11.030;2022-10-04T16:46:39;11.90;90.70
10911;DHT22;5508;49.150;11.030;2022-10-04T16:49:53;11.70;91.20
10911;DHT22;5508;49.150;11.030;2022-10-04T16:56:28;11.40;96.10
10911;DHT22;5508;49.150;11.030;2022-10-04T17:02:57;11.10;98.20
10911;DHT22;5508;49.150;11.030;2022-10-04T17:06:12;10.90;99.30
10911;DHT22;5508;49.150;11.030;2022-10-04T17:16:10;10.40;99.90
10911;DHT22;5508;49.150;11.030;2022-10-04T17:19:27;10.30;99.90
10911;DHT22;5508;49.150;11.030;2022-10-04T17:32:47;9.80;99.90
10911;DHT22;5508;49.150;11.030;2022-10-04T17:36:12;9.70;99.90
10911;DHT22;5508;49.150;11.030;2022-10-04T17:42:39;9.50;99.90
10911;DHT22;5508;49.150;11.030;2022-10-04T17:52:18;9.30;99.90
10911;DHT22;5508;49.150;11.030;2022-10-04T17:55:55;9.20;99.90
10911;DHT22;5508;49.150;11.030;2022-10-04T17:58:58;9.10;99.90
10911;DHT22;5508;49.150;11.030;2022-10-04T18:02:18;9.10;99.90
10911;DHT22;5508;49.150;11.030;2022-10-04T18:11:58;8.80;99.90
10911;DHT22;5508;49.150;11.030;2022-10-04T18:15:20;8.70;99.90
10911;DHT22;5508;49.150;11.030;2022-10-04T18:18:44;8.70;99.90
10911;DHT22;5508;49.150;11.030;2022-10-04T18:21:50;8.70;99.90
10911;DHT22;5508;49.150;11.030;2022-10-04T18:25:18;8.70;99.90
10911;DHT22;5508;49.150;11.030;2022-10-04T18:28:22;8.60;99.90
10911;DHT22;5508;49.150;11.030;2022-10-04T18:31:31;8.50;99.90
10911;DHT22;5508;49.150;11.030;2022-10-04T18:34:31;8.40;99.90
10911;DHT22;5508;49.150;11.030;2022-10-04T18:37:34;8.30;99.90
10911;DHT22;5508;49.150;11.030;2022-10-04T18:40:42;8.30;99.90
10911;DHT22;5508;49.150;11.030;2022-10-04T18:44:05;8.20;99.90
10911;DHT22;5508;49.150;11.030;2022-10-04T18:47:18;8.20;99.90
10911;DHT22;5508;49.150;11.030;2022-10-04T18:50:34;8.10;99.90
10911;DHT22;5508;49.150;11.030;2022-10-04T18:53:40;8.00;99.90
10911;DHT22;5508;49.150;11.030;2022-10-04T19:00:13;7.90;99.90
10911;DHT22;5508;49.150;11.030;2022-10-04T19:06:40;7.60;99.90
10911;DHT22;5508;49.150;11.030;2022-10-04T19:10:02;7.60;99.90
10911;DHT22;5508;49.150;11.030;2022-10-04T19:13:23;7.60;99.90
10911;DHT22;5508;49.150;11.030;2022-10-04T19:20:10;7.50;99.90
10911;DHT22;5508;49.150;11.030;2022-10-04T19:43:23;7.10;99.90
10911;DHT22;5508;49.150;11.030;2022-10-04T19:46:37;7.00;99.90
10911;DHT22;5508;49.150;11.030;2022-10-04T19:49:51;7.00;99.90
10911;DHT22;5508;49.150;11.030;2022-10-04T19:56:19;7.00;99.90
10911;DHT22;5508;49.150;11.030;2022-10-04T19:59:30;6.90;99.90
10911;DHT22;5508;49.150;11.030;2022-10-04T20:02:35;6.90;99.90
10911;DHT22;5508;49.150;11.030;2022-10-04T20:05:42;6.80;99.90
10911;DHT22;5508;49.150;11.030;2022-10-04T20:08:56;6.70;99.90
10911;DHT22;5508;49.150;11.030;2022-10-04T20:21:41;6.60;99.90
10911;DHT22;5508;49.150;11.030;2022-10-04T20:30:49;6.40;99.90
10911;DHT22;5508;49.150;11.030;2022-10-04T20:33:51;6.40;99.90
10911;DHT22;5508;49.150;11.030;2022-10-04T20:36:52;6.40;99.90
10911;DHT22;5508;49.150;11.030;2022-10-04T20:46:21;6.20;99.90
10911;DHT22;5508;49.150;11.030;2022-10-04T20:49:23;6.20;99.90
10911;DHT22;5508;49.150;11.030;2022-10-04T20:52:29;6.10;99.90
10911;DHT22;5508;49.150;11.030;2022-10-04T20:55:31;6.10;99.90
10911;DHT22;5508;49.150;11.030;2022-10-04T20:58:33;6.10;99.90
10911;DHT22;5508;49.150;11.030;2022-10-04T21:01:35;6.00;99.90
10911;DHT22;5508;49.150;11.030;2022-10-04T21:04:36;6.00;99.90
10911;DHT22;5508;49.150;11.030;2022-10-04T21:07:44;6.00;99.90
10911;DHT22;5508;49.150;11.030;2022-10-04T21:14:24;6.00;99.90
10911;DHT22;5508;49.150;11.030;2022-10-04T21:20:47;5.80;99.90
10911;DHT22;5508;49.150;11.030;2022-10-04T21:23:48;5.80;99.90
10911;DHT22;5508;49.150;11.030;2022-10-04T21:26:55;5.80;99.90
10911;DHT22;5508;49.150;11.030;2022-10-04T21:29:57;5.80;99.90
10911;DHT22;5508;49.150;11.030;2022-10-04T21:32:58;5.80;99.90
10911;DHT22;5508;49.150;11.030;2022-10-04T21:35:58;5.70;99.90
10911;DHT22;5508;49.150;11.030;2022-10-04T21:38:59;5.70;99.90
10911;DHT22;5508;49.150;11.030;2022-10-04T21:41:59;5.70;99.90
10911;DHT22;5508;49.150;11.030;2022-10-04T21:45:00;5.50;99.90
10911;DHT22;5508;49.150;11.030;2022-10-04T21:48:01;5.50;99.90
10911;DHT22;5508;49.150;11.030;2022-10-04T21:51:01;5.50;99.90
10911;DHT22;5508;49.150;11.030;2022-10-04T21:54:02;5.50;99.90
10911;DHT22;5508;49.150;11.030;2022-10-04T21:57:03;5.50;99.90
10911;DHT22;5508;49.150;11.030;2022-10-04T22:00:04;5.60;99.90
10911;DHT22;5508;49.150;11.030;2022-10-04T22:03:05;5.50;99.90
10911;DHT22;5508;49.150;11.030;2022-10-04T22:06:06;5.50;99.90
10911;DHT22;5508;49.150;11.030;2022-10-04T22:09:07;5.50;99.90
10911;DHT22;5508;49.150;11.030;2022-10-04T22:12:08;5.40;99.90
10911;DHT22;5508;49.150;11.030;2022-10-04T22:15:08;5.30;99.90
10911;DHT22;5508;49.150;11.030;2022-10-04T22:18:09;5.30;99.90
10911;DHT22;5508;49.150;11.030;2022-10-04T22:21:10;5.20;99.90
10911;DHT22;5508;49.150;11.030;2022-10-04T22:24:19;5.30;99.90
10911;DHT22;5508;49.150;11.030;2022-10-04T22:27:19;5.20;99.90
10911;DHT22;5508;49.150;11.030;2022-10-04T22:30:24;5.10;99.90
10911;DHT22;5508;49.150;11.030;2022-10-04T22:33:33;5.00;99.90
10911;DHT22;5508;49.150;11.030;2022-10-04T22:36:38;5.00;99.90
10911;DHT22;5508;49.150;11.030;2022-10-04T22:39:39;5.00;99.90
10911;DHT22;5508;49.150;11.030;2022-10-04T22:42:40;5.00;99.90
10911;DHT22;5508;49.150;11.030;2022-10-04T22:45:42;5.00;99.90
10911;DHT22;5508;49.150;11.030;2022-10-04T22:48:44;5.00;99.90
10911;DHT22;5508;49.150;11.030;2022-10-04T22:51:47;5.00;99.90
10911;DHT22;5508;49.150;11.030;2022-10-04T22:54:50;5.00;99.90
10911;DHT22;5508;49.150;11.030;2022-10-04T22:57:51;5.00;99.90
10911;DHT22;5508;49.150;11.030;2022-10-04T23:00:54;5.00;99.90
10911;DHT22;5508;49.150;11.030;2022-10-04T23:03:56;4.90;99.90
10911;DHT22;5508;49.150;11.030;2022-10-04T23:06:57;4.90;99.90
10911;DHT22;5508;49.150;11.030;2022-10-04T23:09:58;4.80;99.90
10911;DHT22;5508;49.150;11.030;2022-10-04T23:12:58;4.70;99.90
10911;DHT22;5508;49.150;11.030;2022-10-04T23:16:08;4.60;99.90
10911;DHT22;5508;49.150;11.030;2022-10-04T23:19:17;4.70;99.90
10911;DHT22;5508;49.150;11.030;2022-10-04T23:22:25;4.70;99.90
10911;DHT22;5508;49.150;11.030;2022-10-04T23:25:28;4.70;99.90
10911;DHT22;5508;49.150;11.030;2022-10-04T23:28:29;4.60;99.90
10911;DHT22;5508;49.150;11.030;2022-10-04T23:31:29;4.60;99.90
10911;DHT22;5508;49.150;11.030;2022-10-04T23:34:35;4.60;99.90
10911;DHT22;5508;49.150;11.030;2022-10-04T23:37:36;4.60;99.90
10911;DHT22;5508;49.150;11.030;2022-10-04T23:40:37;4.50;99.90
10911;DHT22;5508;49.150;11.030;2022-10-04T23:43:38;4.50;99.90
10911;DHT22;5508;49.150;11.030;2022-10-04T23:46:39;4.50;99.90
10911;DHT22;5508;49.150;11.030;2022-10-04T23:49:40;4.60;99.90
10911;DHT22;5508;49.150;11.030;2022-10-04T23:52:41;4.40;99.90
10911;DHT22;5508;49.150;11.030;2022-10-04T23:55:43;4.40;99.90
10911;DHT22;5508;49.150;11.030;2022-10-04T23:58:44;4.40;99.90
